Time;durP1;ratioP1;P1;durP2;ratioP2;P2;SDS_P1;SDS_P2;PMS_P1;PMS_P2;Temp;Humidity;BMP_temperature;BMP_pressure;BME280_temperature;BME280_humidity;BME280_pressure;Samples;Min_cycle;Max_cycle;Signal;HPM_P1;HPM_P2
2023/04/18 00:00:11;;;;;;;0.13;0.13;;;8.10;74.50;;;;;;4928645;28;20496;-63
2023/04/18 00:02:37;;;;;;;0.00;0.00;;;8.10;73.90;;;;;;4961696;28;21111;-63
2023/04/18 00:05:05;;;;;;;0.10;0.10;;;8.10;73.70;;;;;;4962105;28;20420;-63
2023/04/18 00:07:30;;;;;;;0.00;0.00;;;8.10;73.50;;;;;;4961589;28;20058;-63
2023/04/18 00:09:56;;;;;;;0.00;0.00;;;8.10;73.70;;;;;;4961897;28;20047;-63
2023/04/18 00:12:21;;;;;;;0.35;0.15;;;8.10;73.90;;;;;;4962086;28;20047;-63
2023/04/18 00:14:49;;;;;;;0.20;0.20;;;8.10;73.80;;;;;;4961353;28;20420;-64
2023/04/18 00:17:15;;;;;;;0.00;0.00;;;8.10;74.10;;;;;;4961890;28;20053;-64
2023/04/18 00:19:41;;;;;;;0.10;0.10;;;8.00;74.10;;;;;;4961424;28;20043;-63
2023/04/18 00:22:07;;;;;;;0.57;0.57;;;8.00;73.60;;;;;;4961057;28;20051;-64
2023/04/18 00:24:32;;;;;;;0.77;0.73;;;7.90;73.50;;;;;;4961106;28;20405;-64
2023/04/18 00:26:58;;;;;;;0.00;0.00;;;8.00;73.40;;;;;;4962194;28;20163;-64
2023/04/18 00:29:23;;;;;;;0.35;0.35;;;8.00;73.50;;;;;;4960021;28;20047;-63
2023/04/18 00:31:49;;;;;;;0.10;0.10;;;7.90;73.70;;;;;;4961680;28;20052;-63
2023/04/18 00:34:15;;;;;;;0.77;0.68;;;7.90;73.90;;;;;;4942336;28;20547;-63
2023/04/18 00:36:40;;;;;;;0.00;0.00;;;8.00;74.10;;;;;;4959598;28;20175;-63
2023/04/18 00:39:06;;;;;;;0.00;0.00;;;7.90;74.20;;;;;;4961346;28;20038;-63
2023/04/18 00:41:31;;;;;;;1.02;0.47;;;8.00;74.40;;;;;;4960666;28;20043;-63
2023/04/18 00:43:57;;;;;;;0.45;0.45;;;8.00;74.50;;;;;;4960423;28;20112;-62
2023/04/18 00:46:22;;;;;;;0.00;0.00;;;8.00;74.60;;;;;;4961313;28;20047;-63
2023/04/18 00:48:48;;;;;;;11.20;3.35;;;8.00;75.00;;;;;;4956071;28;20055;-63
2023/04/18 00:51:14;;;;;;;0.63;0.63;;;8.00;75.30;;;;;;4961646;28;20061;-63
2023/04/18 00:53:41;;;;;;;0.08;0.08;;;8.00;75.60;;;;;;4960408;28;20408;-63
2023/04/18 00:56:07;;;;;;;0.40;0.40;;;8.10;75.70;;;;;;4959768;28;20086;-63
2023/04/18 00:58:33;;;;;;;0.20;0.20;;;8.00;75.70;;;;;;4959843;28;20081;-63
2023/04/18 01:00:58;;;;;;;0.00;0.00;;;8.00;75.70;;;;;;4959143;28;20046;-62
2023/04/18 01:03:25;;;;;;;0.28;0.22;;;8.00;75.70;;;;;;4942443;28;20046;-63
2023/04/18 01:05:52;;;;;;;0.10;0.10;;;8.10;75.80;;;;;;4960066;28;20038;-63
2023/04/18 01:08:18;;;;;;;0.50;0.50;;;8.00;75.80;;;;;;4942393;28;20097;-63
2023/04/18 01:10:44;;;;;;;0.00;0.00;;;8.00;75.80;;;;;;4960616;28;20086;-63
2023/04/18 01:13:15;;;;;;;0.00;0.00;;;7.90;75.90;;;;;;4959261;28;20122;-63
2023/04/18 01:15:48;;;;;;;0.20;0.20;;;8.00;75.90;;;;;;4959809;28;20055;-63
2023/04/18 01:18:17;;;;;;;0.00;0.00;;;7.90;76.00;;;;;;4927942;28;20063;-63
2023/04/18 01:20:46;;;;;;;0.38;0.32;;;7.90;75.80;;;;;;4959384;28;20098;-63
2023/04/18 01:23:12;;;;;;;0.00;0.00;;;7.90;75.90;;;;;;4958340;28;20077;-63
2023/04/18 01:25:38;;;;;;;0.20;0.20;;;7.90;76.10;;;;;;4959195;28;20494;-63
2023/04/18 01:28:05;;;;;;;0.30;0.30;;;7.90;76.30;;;;;;4941596;28;20133;-63
2023/04/18 01:30:32;;;;;;;0.10;0.10;;;7.90;76.50;;;;;;4961070;28;20054;-63
2023/04/18 01:32:58;;;;;;;0.20;0.20;;;7.80;76.50;;;;;;4959007;28;20045;-63
2023/04/18 01:35:24;;;;;;;1.80;1.70;;;7.80;76.80;;;;;;4960142;28;20425;-63
2023/04/18 01:37:50;;;;;;;0.10;0.10;;;7.80;76.80;;;;;;4958749;28;20106;-63
2023/04/18 01:40:15;;;;;;;0.40;0.40;;;7.70;77.00;;;;;;4959060;28;20158;-63
2023/04/18 01:42:41;;;;;;;0.10;0.10;;;7.70;76.80;;;;;;4953366;28;20058;-63
2023/04/18 01:45:07;;;;;;;0.10;0.10;;;7.70;77.00;;;;;;4960374;28;20532;-63
2023/04/18 01:47:32;;;;;;;0.10;0.10;;;7.80;76.60;;;;;;4959473;28;20491;-63
2023/04/18 01:49:58;;;;;;;0.00;0.00;;;7.70;76.60;;;;;;4941332;28;20036;-63
2023/04/18 01:52:23;;;;;;;0.00;0.00;;;7.70;76.50;;;;;;4925886;28;20047;-63
2023/04/18 01:54:49;;;;;;;0.00;0.00;;;7.70;76.70;;;;;;4958372;28;20392;-63
2023/04/18 01:57:15;;;;;;;0.00;0.00;;;7.70;76.90;;;;;;4943840;28;20419;-63
2023/04/18 01:59:40;;;;;;;5.15;3.63;;;7.70;76.70;;;;;;4959480;28;20047;-62
2023/04/18 02:02:06;;;;;;;1.60;1.45;;;7.60;77.00;;;;;;4942396;28;20520;-63
2023/04/18 02:04:32;;;;;;;0.00;0.00;;;7.70;76.80;;;;;;4926847;28;20130;-63
2023/04/18 02:06:57;;;;;;;0.00;0.00;;;7.70;76.80;;;;;;4958994;28;20173;-62
2023/04/18 02:09:23;;;;;;;0.13;0.13;;;7.60;77.10;;;;;;4958211;28;20058;-64
2023/04/18 02:11:49;;;;;;;0.00;0.00;;;7.60;77.10;;;;;;4941235;28;20074;-63
2023/04/18 02:14:14;;;;;;;0.05;0.05;;;7.60;77.20;;;;;;4959013;28;20043;-63
2023/04/18 02:16:40;;;;;;;0.00;0.00;;;7.60;77.20;;;;;;4959958;28;20633;-62
2023/04/18 02:19:05;;;;;;;0.45;0.45;;;7.50;77.30;;;;;;4958524;28;20045;-63
2023/04/18 02:21:31;;;;;;;0.00;0.00;;;7.50;77.30;;;;;;4958547;28;20077;-64
2023/04/18 02:23:56;;;;;;;0.00;0.00;;;7.50;77.50;;;;;;4958267;28;20732;-63
2023/04/18 02:26:22;;;;;;;0.00;0.00;;;7.50;77.60;;;;;;4958431;28;20048;-63
2023/04/18 02:28:48;;;;;;;0.00;0.00;;;7.40;77.70;;;;;;4958062;28;20036;-63
2023/04/18 02:31:14;;;;;;;0.00;0.00;;;7.50;77.80;;;;;;4956124;28;20051;-63
2023/04/18 02:33:45;;;;;;;0.00;0.00;;;7.50;77.80;;;;;;4939057;28;20578;-63
2023/04/18 02:36:11;;;;;;;0.00;0.00;;;7.40;77.80;;;;;;4951519;28;20126;-63
2023/04/18 02:38:37;;;;;;;0.55;0.47;;;7.40;77.80;;;;;;4956302;28;20043;-62
2023/04/18 02:41:03;;;;;;;0.10;0.10;;;7.40;77.90;;;;;;4957812;28;20389;-63
2023/04/18 02:43:29;;;;;;;0.00;0.00;;;7.30;78.10;;;;;;4957647;28;20039;-63
2023/04/18 02:45:54;;;;;;;0.30;0.30;;;7.30;78.10;;;;;;4957891;28;20098;-63
2023/04/18 02:48:21;;;;;;;0.20;0.20;;;7.30;78.10;;;;;;4955960;28;20054;-62
2023/04/18 02:50:47;;;;;;;0.25;0.25;;;7.20;78.00;;;;;;4955814;28;20055;-63
2023/04/18 02:53:13;;;;;;;0.05;0.05;;;7.30;78.10;;;;;;4955849;28;20047;-63
2023/04/18 02:55:38;;;;;;;0.00;0.00;;;7.20;78.20;;;;;;4936810;28;20109;-62
2023/04/18 02:58:04;;;;;;;0.00;0.00;;;7.20;78.30;;;;;;4953227;28;20050;-62
2023/04/18 03:00:30;;;;;;;0.00;0.00;;;7.20;78.30;;;;;;4957023;28;20049;-63
2023/04/18 03:02:56;;;;;;;0.00;0.00;;;7.20;78.20;;;;;;4955878;28;20467;-63
2023/04/18 03:05:21;;;;;;;0.80;0.80;;;7.20;78.10;;;;;;4957091;28;20062;-63
2023/04/18 03:07:47;;;;;;;0.00;0.00;;;7.20;77.90;;;;;;4956265;28;20684;-62
2023/04/18 03:10:12;;;;;;;0.35;0.35;;;7.20;77.90;;;;;;4957766;28;20440;-63
2023/04/18 03:12:38;;;;;;;0.10;0.10;;;7.20;77.90;;;;;;4956775;28;20070;-63
2023/04/18 03:15:04;;;;;;;0.10;0.10;;;7.20;77.70;;;;;;4957869;28;20070;-63
2023/04/18 03:17:30;;;;;;;0.00;0.00;;;7.20;77.70;;;;;;4955361;28;20058;-63
2023/04/18 03:19:56;;;;;;;0.00;0.00;;;7.20;77.50;;;;;;4957329;28;20047;-63
2023/04/18 03:22:21;;;;;;;0.00;0.00;;;7.20;77.40;;;;;;4956631;28;20784;-63
2023/04/18 03:24:47;;;;;;;0.20;0.20;;;7.20;77.60;;;;;;4960323;28;20072;-63
2023/04/18 03:27:12;;;;;;;0.10;0.10;;;7.10;77.70;;;;;;4959397;28;20075;-63
2023/04/18 03:29:38;;;;;;;0.00;0.00;;;7.10;77.80;;;;;;4954756;28;20046;-63
2023/04/18 03:32:04;;;;;;;0.00;0.00;;;7.10;77.80;;;;;;4941872;28;20653;-63
2023/04/18 03:34:29;;;;;;;0.00;0.00;;;7.10;77.80;;;;;;4962248;28;20034;-63
2023/04/18 03:36:55;;;;;;;0.05;0.05;;;7.10;77.80;;;;;;4961131;28;20043;-63
2023/04/18 03:39:21;;;;;;;0.10;0.10;;;7.10;77.90;;;;;;4962686;28;20050;-63
2023/04/18 03:41:46;;;;;;;0.00;0.00;;;7.10;78.00;;;;;;4961773;28;20078;-63
2023/04/18 03:44:12;;;;;;;0.22;0.15;;;7.10;78.00;;;;;;4961880;28;20504;-63
2023/04/18 03:46:38;;;;;;;0.00;0.00;;;7.20;78.00;;;;;;4961313;28;20098;-63
2023/04/18 03:49:03;;;;;;;0.00;0.00;;;7.10;78.10;;;;;;4961942;28;20564;-63
2023/04/18 03:51:32;;;;;;;0.00;0.00;;;7.20;78.10;;;;;;4944689;28;20052;-63
2023/04/18 03:53:57;;;;;;;0.00;0.00;;;7.20;78.00;;;;;;4944523;28;20441;-63
2023/04/18 03:56:23;;;;;;;0.00;0.00;;;7.20;78.30;;;;;;4961195;28;20043;-63
2023/04/18 03:58:48;;;;;;;0.00;0.00;;;7.30;78.30;;;;;;4961178;28;20385;-63
2023/04/18 04:01:15;;;;;;;0.00;0.00;;;7.30;78.30;;;;;;4962187;28;20125;-63
2023/04/18 04:03:40;;;;;;;0.00;0.00;;;7.30;78.30;;;;;;4960535;28;20101;-63
2023/04/18 04:06:06;;;;;;;0.00;0.00;;;7.30;78.40;;;;;;4960803;28;20429;-63
2023/04/18 04:08:32;;;;;;;0.00;0.00;;;7.30;78.60;;;;;;4958790;28;20042;-63
2023/04/18 04:10:57;;;;;;;0.00;0.00;;;7.30;78.60;;;;;;4927880;28;20097;-63
2023/04/18 04:13:23;;;;;;;0.00;0.00;;;7.40;78.40;;;;;;4959709;28;20042;-64
2023/04/18 04:15:49;;;;;;;0.00;0.00;;;7.40;78.40;;;;;;4955632;28;20102;-64
2023/04/18 04:18:15;;;;;;;0.35;0.35;;;7.40;78.50;;;;;;4950914;29;20047;-63
2023/04/18 04:20:40;;;;;;;0.00;0.00;;;7.40;78.50;;;;;;4949461;29;21300;-63
2023/04/18 04:23:06;;;;;;;0.00;0.00;;;7.40;78.60;;;;;;4936109;29;20523;-63
2023/04/18 04:25:32;;;;;;;0.00;0.00;;;7.50;78.50;;;;;;4951071;28;20044;-63
2023/04/18 04:28:00;;;;;;;0.00;0.00;;;7.50;78.50;;;;;;4941581;29;20535;-62
2023/04/18 04:30:26;;;;;;;0.00;0.00;;;7.50;78.40;;;;;;4951959;29;20508;-63
2023/04/18 04:32:52;;;;;;;0.00;0.00;;;7.50;78.60;;;;;;4941672;29;20054;-63
2023/04/18 04:35:18;;;;;;;0.00;0.00;;;7.50;78.50;;;;;;4940446;29;20051;-63
2023/04/18 04:37:44;;;;;;;0.00;0.00;;;7.60;78.60;;;;;;4950771;29;20512;-63
2023/04/18 04:40:10;;;;;;;0.00;0.00;;;7.60;78.60;;;;;;4951055;28;20490;-63
2023/04/18 04:42:36;;;;;;;0.43;0.43;;;7.60;78.50;;;;;;4951229;29;20155;-63
2023/04/18 04:45:02;;;;;;;0.00;0.00;;;7.70;78.20;;;;;;4951468;28;20059;-63
2023/04/18 04:47:28;;;;;;;1.35;0.73;;;7.60;78.30;;;;;;4951578;29;20039;-65
2023/04/18 04:49:53;;;;;;;1.80;1.65;;;7.70;78.40;;;;;;4938722;29;20090;-63
2023/04/18 04:52:19;;;;;;;0.00;0.00;;;7.70;78.30;;;;;;4949996;29;20043;-63
2023/04/18 04:54:45;;;;;;;0.75;0.75;;;7.70;78.30;;;;;;4950639;29;20090;-63
2023/04/18 04:57:11;;;;;;;0.20;0.20;;;7.70;78.30;;;;;;4950854;28;20054;-63
2023/04/18 04:59:37;;;;;;;0.00;0.00;;;7.80;78.40;;;;;;4951341;29;20043;-63
2023/04/18 05:02:02;;;;;;;0.00;0.00;;;7.80;78.50;;;;;;4940630;29;20551;-63
2023/04/18 05:04:28;;;;;;;0.00;0.00;;;7.80;78.80;;;;;;4950849;29;20515;-63
2023/04/18 05:06:53;;;;;;;0.10;0.10;;;7.80;78.90;;;;;;4950146;29;20054;-63
2023/04/18 05:09:19;;;;;;;0.05;0.05;;;7.80;78.80;;;;;;4951054;29;20035;-63
2023/04/18 05:11:48;;;;;;;0.00;0.00;;;7.80;78.70;;;;;;4948950;29;20382;-63
2023/04/18 05:14:14;;;;;;;0.57;0.57;;;7.90;78.70;;;;;;4947637;29;20083;-63
2023/04/18 05:16:40;;;;;;;0.28;0.28;;;7.90;78.50;;;;;;4955847;28;20059;-63
2023/04/18 05:19:06;;;;;;;0.00;0.00;;;7.90;78.50;;;;;;4925771;28;20510;-63
2023/04/18 05:21:31;;;;;;;0.10;0.10;;;7.90;78.60;;;;;;4940935;28;20035;-63
2023/04/18 05:23:57;;;;;;;0.00;0.00;;;7.90;78.50;;;;;;4941835;28;20063;-63
2023/04/18 05:26:23;;;;;;;0.30;0.30;;;7.90;78.40;;;;;;4941183;28;20046;-66
2023/04/18 05:28:48;;;;;;;0.00;0.00;;;8.00;78.10;;;;;;4941233;28;20047;-63
2023/04/18 05:31:14;;;;;;;0.00;0.00;;;8.00;78.10;;;;;;4958877;28;20089;-63
2023/04/18 05:33:40;;;;;;;0.35;0.35;;;8.00;78.10;;;;;;4939330;28;20062;-63
2023/04/18 05:36:06;;;;;;;0.00;0.00;;;8.00;78.00;;;;;;4940589;28;20459;-63
2023/04/18 05:38:32;;;;;;;0.20;0.20;;;8.10;77.80;;;;;;4958283;28;20053;-64
2023/04/18 05:40:59;;;;;;;0.00;0.00;;;8.10;77.80;;;;;;4960337;28;20039;-64
2023/04/18 05:43:25;;;;;;;0.00;0.00;;;8.10;78.90;;;;;;4958794;28;20074;-65
2023/04/18 05:45:53;;;;;;;0.10;0.10;;;8.20;77.70;;;;;;4959436;28;20039;-63
2023/04/18 05:48:21;;;;;;;0.52;0.45;;;8.20;77.60;;;;;;4960280;28;20039;-64
2023/04/18 05:50:47;;;;;;;0.00;0.00;;;8.20;77.50;;;;;;4941637;28;20054;-63
2023/04/18 05:53:13;;;;;;;0.00;0.00;;;8.20;77.60;;;;;;4959408;28;20041;-64
2023/04/18 05:55:42;;;;;;;0.00;0.00;;;8.20;77.50;;;;;;4957391;28;20043;-63
2023/04/18 05:58:07;;;;;;;0.85;0.85;;;8.20;77.70;;;;;;4959464;28;20141;-63
2023/04/18 06:00:33;;;;;;;0.20;0.20;;;8.20;77.40;;;;;;4957586;28;20593;-64
2023/04/18 06:02:59;;;;;;;0.63;0.63;;;8.20;77.60;;;;;;4959763;28;20147;-63
2023/04/18 06:05:24;;;;;;;0.57;0.57;;;8.20;77.20;;;;;;4958506;28;20046;-63
2023/04/18 06:07:50;;;;;;;0.00;0.00;;;8.30;77.20;;;;;;4936872;28;20586;-64
2023/04/18 06:10:16;;;;;;;0.00;0.00;;;8.20;77.10;;;;;;4958274;28;20043;-64
2023/04/18 06:12:41;;;;;;;0.00;0.00;;;8.20;77.50;;;;;;4955975;28;20043;-63
2023/04/18 06:15:07;;;;;;;0.00;0.00;;;8.30;77.50;;;;;;4957788;28;20063;-63
2023/04/18 06:17:33;;;;;;;0.10;0.10;;;8.30;77.50;;;;;;4959977;28;20058;-63
2023/04/18 06:19:59;;;;;;;0.00;0.00;;;8.30;77.70;;;;;;4955539;28;20043;-64
2023/04/18 06:22:25;;;;;;;0.65;0.65;;;8.30;77.40;;;;;;4957727;28;20043;-65
2023/04/18 06:24:50;;;;;;;0.38;0.38;;;8.40;77.80;;;;;;4941502;28;20499;-65
2023/04/18 06:27:16;;;;;;;0.00;0.00;;;8.40;77.40;;;;;;4959362;28;20039;-65
2023/04/18 06:29:42;;;;;;;0.00;0.00;;;8.50;77.30;;;;;;4958623;28;20579;-64
2023/04/18 06:32:08;;;;;;;0.30;0.30;;;8.50;77.30;;;;;;4958661;28;20039;-64
2023/04/18 06:34:33;;;;;;;0.00;0.00;;;8.70;77.00;;;;;;4956467;28;20062;-65
2023/04/18 06:36:59;;;;;;;0.00;0.00;;;8.80;76.20;;;;;;4954813;28;20050;-63
2023/04/18 06:39:26;;;;;;;0.00;0.00;;;8.90;76.40;;;;;;4935737;28;20115;-63
2023/04/18 06:41:52;;;;;;;0.95;0.95;;;8.90;75.80;;;;;;4959038;28;20047;-64
2023/04/18 06:44:17;;;;;;;1.08;0.80;;;8.80;75.50;;;;;;4956656;28;20051;-63
2023/04/18 06:46:43;;;;;;;0.03;0.03;;;8.90;75.80;;;;;;4958975;28;20039;-63
2023/04/18 06:49:09;;;;;;;0.00;0.00;;;8.80;75.90;;;;;;4939228;28;20431;-63
2023/04/18 06:51:34;;;;;;;0.77;0.77;;;8.80;75.90;;;;;;4938627;28;21336;-63
2023/04/18 06:54:00;;;;;;;0.00;0.00;;;8.80;76.20;;;;;;4957940;28;20692;-62
2023/04/18 06:56:26;;;;;;;0.03;0.03;;;8.70;75.90;;;;;;4956078;28;20039;-62
2023/04/18 06:58:51;;;;;;;0.00;0.00;;;8.80;75.80;;;;;;4957690;28;20125;-62
2023/04/18 07:01:18;;;;;;;0.10;0.10;;;8.70;76.00;;;;;;4954248;28;20047;-62
2023/04/18 07:03:43;;;;;;;0.03;0.03;;;8.80;75.90;;;;;;4958817;28;20391;-62
2023/04/18 07:06:09;;;;;;;0.00;0.00;;;8.90;75.70;;;;;;4957348;28;20067;-63
2023/04/18 07:08:36;;;;;;;0.00;0.00;;;8.90;75.30;;;;;;4938064;28;20050;-62
2023/04/18 07:11:01;;;;;;;0.00;0.00;;;8.90;74.90;;;;;;4952148;28;20062;-62
2023/04/18 07:13:27;;;;;;;0.20;0.20;;;8.80;74.30;;;;;;4955771;28;20382;-62
2023/04/18 07:15:53;;;;;;;0.10;0.10;;;9.00;74.10;;;;;;4950485;28;20062;-62
2023/04/18 07:18:18;;;;;;;0.03;0.03;;;9.00;71.10;;;;;;4945028;29;20082;-62
2023/04/18 07:20:44;;;;;;;0.00;0.00;;;9.10;71.80;;;;;;4948795;29;20039;-62
2023/04/18 07:23:09;;;;;;;0.10;0.10;;;9.10;70.90;;;;;;4949047;29;20039;-62
2023/04/18 07:25:38;;;;;;;2.08;1.00;;;9.10;69.70;;;;;;4948916;29;20122;-62
2023/04/18 07:28:04;;;;;;;0.03;0.03;;;9.20;70.20;;;;;;4948539;29;20055;-62
2023/04/18 07:30:30;;;;;;;0.73;0.73;;;9.20;68.80;;;;;;4948548;29;20039;-62
2023/04/18 07:32:55;;;;;;;0.00;0.00;;;9.20;68.20;;;;;;4949409;29;20055;-62
2023/04/18 07:35:21;;;;;;;0.15;0.15;;;9.30;68.80;;;;;;4947672;29;20062;-62
2023/04/18 07:37:47;;;;;;;0.00;0.00;;;9.30;67.80;;;;;;4933352;29;20050;-65
2023/04/18 07:40:12;;;;;;;0.38;0.15;;;9.30;67.40;;;;;;4947664;29;21205;-63
2023/04/18 07:42:38;;;;;;;2.38;1.15;;;9.40;66.30;;;;;;4936179;29;20085;-64
2023/04/18 07:45:04;;;;;;;0.00;0.00;;;9.40;66.10;;;;;;4947865;29;20746;-64
2023/04/18 07:47:30;;;;;;;0.10;0.10;;;9.50;66.40;;;;;;4947626;29;20085;-64
2023/04/18 07:49:56;;;;;;;0.03;0.03;;;9.80;67.30;;;;;;4947345;29;20070;-62
2023/04/18 07:52:21;;;;;;;0.30;0.30;;;9.80;64.30;;;;;;4948914;29;20089;-62
2023/04/18 07:54:47;;;;;;;0.00;0.00;;;9.80;64.60;;;;;;4944469;29;20055;-62
2023/04/18 07:57:13;;;;;;;0.00;0.00;;;9.80;65.40;;;;;;4938879;29;20514;-63
2023/04/18 07:59:38;;;;;;;0.00;0.00;;;9.80;66.20;;;;;;4947972;29;20785;-62
2023/04/18 08:02:04;;;;;;;1.10;1.02;;;9.80;66.60;;;;;;4948413;29;20050;-62
2023/04/18 08:04:29;;;;;;;0.10;0.10;;;9.70;65.70;;;;;;4936076;29;20058;-62
2023/04/18 08:06:55;;;;;;;0.35;0.35;;;9.70;65.80;;;;;;4952814;28;20991;-63
2023/04/18 08:09:20;;;;;;;0.00;0.00;;;9.70;64.30;;;;;;4943672;28;20039;-62
2023/04/18 08:11:46;;;;;;;0.00;0.00;;;9.70;63.90;;;;;;4939013;29;20039;-62
2023/04/18 08:14:12;;;;;;;0.05;0.05;;;9.80;64.80;;;;;;4949367;29;20040;-62
2023/04/18 08:16:38;;;;;;;0.38;0.38;;;9.80;64.30;;;;;;4941197;28;20051;-62
2023/04/18 08:19:04;;;;;;;2.45;0.75;;;9.80;64.30;;;;;;4950404;29;20079;-63
2023/04/18 08:21:31;;;;;;;3.30;1.60;;;9.80;63.40;;;;;;4950298;29;20043;-62
2023/04/18 08:23:57;;;;;;;1.60;1.23;;;9.80;64.70;;;;;;4941570;29;20047;-62
2023/04/18 08:26:23;;;;;;;0.10;0.10;;;9.90;64.60;;;;;;4949842;29;20054;-63
2023/04/18 08:28:49;;;;;;;0.05;0.05;;;10.00;64.30;;;;;;4949103;29;20055;-62
2023/04/18 08:31:15;;;;;;;0.10;0.10;;;10.00;65.10;;;;;;4949141;28;20496;-62
2023/04/18 08:33:41;;;;;;;0.08;0.08;;;10.00;64.90;;;;;;4950639;29;20043;-62
2023/04/18 08:36:07;;;;;;;0.00;0.00;;;10.10;63.60;;;;;;4949249;28;20508;-63
2023/04/18 08:38:33;;;;;;;0.00;0.00;;;10.10;64.50;;;;;;4950940;29;20094;-62
2023/04/18 08:40:58;;;;;;;0.10;0.10;;;10.20;64.60;;;;;;4950791;28;20047;-61
2023/04/18 08:43:24;;;;;;;0.52;0.52;;;10.20;64.00;;;;;;4951355;29;20042;-63
2023/04/18 08:45:51;;;;;;;0.00;0.00;;;10.30;65.20;;;;;;4950911;29;20433;-62
2023/04/18 08:48:17;;;;;;;1.75;1.30;;;10.40;62.80;;;;;;4935291;29;20059;-62
2023/04/18 08:50:44;;;;;;;2.42;2.22;;;10.40;62.50;;;;;;4949015;28;20512;-62
2023/04/18 08:53:10;;;;;;;0.00;0.00;;;10.50;63.00;;;;;;4948763;29;20039;-62
2023/04/18 08:55:36;;;;;;;0.00;0.00;;;10.50;63.00;;;;;;4949791;29;20051;-62
2023/04/18 08:58:05;;;;;;;0.05;0.05;;;10.50;64.10;;;;;;4950413;29;20043;-62
2023/04/18 09:00:31;;;;;;;0.00;0.00;;;10.60;64.70;;;;;;4950054;29;20043;-62
2023/04/18 09:02:58;;;;;;;0.00;0.00;;;10.70;64.90;;;;;;4945996;29;20098;-62
2023/04/18 09:05:25;;;;;;;0.05;0.05;;;10.70;63.80;;;;;;4950300;29;20051;-62
2023/04/18 09:07:53;;;;;;;0.00;0.00;;;10.70;63.00;;;;;;4950840;29;20535;-62
2023/04/18 09:10:27;;;;;;;2.35;1.38;;;10.80;63.00;;;;;;4950501;29;20106;-62
2023/04/18 09:12:55;;;;;;;0.00;0.00;;;10.80;63.00;;;;;;4947972;28;20595;-62
2023/04/18 09:15:25;;;;;;;0.00;0.00;;;10.90;63.50;;;;;;4952894;28;20731;-62
2023/04/18 09:17:52;;;;;;;0.03;0.03;;;11.00;63.30;;;;;;4959060;28;20051;-62
2023/04/18 09:20:29;;;;;;;0.08;0.05;;;11.00;63.80;;;;;;4958568;28;20461;-62
2023/04/18 09:22:59;;;;;;;0.47;0.47;;;11.10;64.00;;;;;;4959775;28;20055;-62
2023/04/18 09:25:33;;;;;;;0.00;0.00;;;11.10;65.00;;;;;;4956418;28;20523;-63
2023/04/18 09:28:00;;;;;;;0.10;0.10;;;11.20;64.60;;;;;;4953808;28;20145;-62
2023/04/18 09:30:36;;;;;;;1.85;0.85;;;11.30;63.70;;;;;;4958102;28;20496;-63
2023/04/18 09:33:04;;;;;;;0.55;0.50;;;11.30;64.80;;;;;;4957844;28;20050;-61
2023/04/18 09:35:30;;;;;;;0.00;0.00;;;11.40;64.60;;;;;;4942844;28;20102;-62
2023/04/18 09:37:55;;;;;;;0.63;0.63;;;11.50;64.30;;;;;;4958091;28;20058;-62
2023/04/18 09:40:22;;;;;;;0.00;0.00;;;11.50;63.50;;;;;;4940542;28;20046;-61
2023/04/18 09:42:51;;;;;;;0.28;0.28;;;11.60;63.80;;;;;;4953368;28;20126;-62
2023/04/18 09:45:16;;;;;;;0.10;0.10;;;11.70;64.00;;;;;;4959612;28;20503;-63
2023/04/18 09:47:42;;;;;;;0.00;0.00;;;11.80;64.40;;;;;;4939843;28;20047;-62
2023/04/18 09:50:09;;;;;;;0.00;0.00;;;11.90;63.70;;;;;;4955180;28;20053;-62
2023/04/18 09:52:40;;;;;;;0.05;0.05;;;12.10;63.40;;;;;;4958690;28;20416;-63
2023/04/18 09:55:08;;;;;;;0.22;0.22;;;12.00;62.60;;;;;;4957955;28;20143;-62
2023/04/18 09:57:34;;;;;;;0.08;0.08;;;12.10;62.40;;;;;;4960131;28;20045;-62
2023/04/18 10:00:30;;;;;;;0.00;0.00;;;12.10;62.60;;;;;;4958001;28;20439;-62
2023/04/18 10:02:58;;;;;;;0.00;0.00;;;12.20;62.90;;;;;;4955515;28;20047;-62
2023/04/18 10:05:29;;;;;;;0.20;0.20;;;12.30;62.70;;;;;;4958006;28;20047;-62
2023/04/18 10:07:56;;;;;;;1.98;1.55;;;12.30;61.50;;;;;;4958107;28;20049;-63
2023/04/18 10:10:22;;;;;;;0.00;0.00;;;12.40;61.90;;;;;;4925045;28;20073;-62
2023/04/18 10:12:49;;;;;;;0.00;0.00;;;12.40;61.00;;;;;;4957172;28;20066;-62
2023/04/18 10:15:16;;;;;;;0.15;0.15;;;12.50;62.30;;;;;;4956359;28;20055;-63
2023/04/18 10:17:53;;;;;;;0.00;0.00;;;12.50;59.80;;;;;;4949415;28;20051;-62
2023/04/18 10:20:23;;;;;;;0.10;0.10;;;12.40;58.90;;;;;;4949345;29;20069;-62
2023/04/18 10:22:50;;;;;;;0.10;0.10;;;12.40;61.40;;;;;;4949597;29;20039;-62
2023/04/18 10:25:34;;;;;;;0.00;0.00;;;12.50;60.80;;;;;;4954586;28;20462;-62
2023/04/18 10:28:07;;;;;;;0.20;0.20;;;12.60;62.10;;;;;;4939137;29;20078;-62
2023/04/18 10:30:41;;;;;;;1.52;1.42;;;12.60;60.00;;;;;;4948866;28;20046;-62
2023/04/18 10:33:26;;;;;;;0.25;0.25;;;12.60;58.00;;;;;;4948876;28;20039;-63
2023/04/18 10:35:58;;;;;;;0.30;0.30;;;12.60;57.30;;;;;;4943955;29;20039;-62
2023/04/18 10:38:24;;;;;;;0.08;0.08;;;12.60;58.00;;;;;;4936463;29;20054;-62
2023/04/18 10:40:50;;;;;;;0.43;0.43;;;12.60;59.10;;;;;;4918443;29;20039;-63
2023/04/18 10:43:15;;;;;;;0.00;0.00;;;12.60;58.60;;;;;;4947730;29;20724;-62
2023/04/18 10:45:41;;;;;;;0.77;0.60;;;12.60;60.80;;;;;;4949136;29;20051;-63
2023/04/18 10:48:29;;;;;;;0.00;0.00;;;12.70;60.10;;;;;;4949017;29;20035;-62
2023/04/18 10:51:15;;;;;;;0.00;0.00;;;12.90;61.20;;;;;;4948826;28;20039;-62
2023/04/18 10:53:59;;;;;;;0.10;0.10;;;13.00;60.40;;;;;;4949074;29;20051;-63
2023/04/18 10:56:26;;;;;;;0.30;0.30;;;13.10;59.80;;;;;;4949218;29;20066;-62
2023/04/18 10:58:52;;;;;;;0.10;0.10;;;13.10;58.90;;;;;;4938819;29;20081;-62
2023/04/18 11:01:26;;;;;;;0.03;0.03;;;13.10;59.70;;;;;;4948113;29;20044;-63
2023/04/18 11:03:53;;;;;;;0.17;0.17;;;13.10;59.90;;;;;;4936072;29;20039;-63
2023/04/18 11:06:20;;;;;;;0.80;0.73;;;13.10;58.50;;;;;;4947748;29;20895;-62
2023/04/18 11:08:46;;;;;;;0.00;0.00;;;13.20;60.00;;;;;;4948438;29;20496;-62
2023/04/18 11:11:12;;;;;;;0.20;0.20;;;13.20;57.40;;;;;;4946843;28;20039;-62
2023/04/18 11:13:56;;;;;;;0.00;0.00;;;13.30;59.00;;;;;;4949988;29;20130;-62
2023/04/18 11:16:30;;;;;;;0.90;0.90;;;13.20;58.10;;;;;;4949101;28;20060;-63
2023/04/18 11:18:56;;;;;;;0.10;0.10;;;13.30;60.30;;;;;;4945266;29;20059;-63
2023/04/18 11:21:27;;;;;;;0.05;0.05;;;13.40;60.30;;;;;;4948551;29;20102;-63
2023/04/18 11:23:56;;;;;;;0.00;0.00;;;13.50;59.30;;;;;;4946063;28;20396;-63
2023/04/18 11:26:25;;;;;;;0.00;0.00;;;13.50;59.30;;;;;;4922919;29;20059;-63
2023/04/18 11:28:55;;;;;;;5.60;2.28;;;13.60;59.00;;;;;;4943096;28;20556;-63
2023/04/18 11:31:24;;;;;;;0.13;0.13;;;13.70;60.00;;;;;;4946744;29;20130;-63
2023/04/18 11:33:55;;;;;;;0.00;0.00;;;13.70;59.40;;;;;;4919513;29;20047;-62
2023/04/18 11:36:21;;;;;;;0.40;0.40;;;13.70;59.90;;;;;;4947354;29;20186;-62
2023/04/18 11:38:46;;;;;;;0.00;0.00;;;13.80;59.70;;;;;;4934767;29;20126;-62
2023/04/18 11:41:16;;;;;;;0.00;0.00;;;13.90;60.50;;;;;;4947895;29;20524;-63
2023/04/18 11:43:45;;;;;;;0.00;0.00;;;14.00;60.20;;;;;;4948287;28;20050;-62
2023/04/18 11:46:12;;;;;;;0.13;0.13;;;14.10;59.90;;;;;;4940533;29;20044;-62
2023/04/18 11:48:42;;;;;;;0.00;0.00;;;14.10;60.30;;;;;;4952373;28;20493;-62
2023/04/18 11:51:29;;;;;;;0.20;0.20;;;14.20;59.60;;;;;;4952084;29;20090;-62
2023/04/18 11:53:54;;;;;;;0.10;0.10;;;14.30;60.90;;;;;;4951492;29;20126;-62
2023/04/18 11:56:20;;;;;;;0.00;0.00;;;14.40;61.30;;;;;;4942604;29;20047;-62
2023/04/18 11:58:46;;;;;;;0.00;0.00;;;14.40;57.70;;;;;;4953049;28;20039;-63
2023/04/18 12:01:16;;;;;;;0.00;0.00;;;14.30;56.90;;;;;;4949911;29;20073;-63
2023/04/18 12:03:43;;;;;;;0.00;0.00;;;14.30;59.80;;;;;;4948720;29;20035;-62
2023/04/18 12:06:09;;;;;;;0.00;0.00;;;14.30;60.30;;;;;;4959122;28;20036;-63
2023/04/18 12:08:34;;;;;;;0.35;0.35;;;14.40;60.20;;;;;;4951934;29;20046;-63
2023/04/18 12:11:00;;;;;;;0.43;0.43;;;14.40;57.90;;;;;;4941403;29;20097;-63
2023/04/18 12:13:31;;;;;;;0.00;0.00;;;14.50;58.60;;;;;;4950095;29;20091;-62
2023/04/18 12:15:56;;;;;;;0.07;0.07;;;14.60;59.60;;;;;;4956149;28;20058;-62
2023/04/18 12:18:23;;;;;;;0.00;0.00;;;14.60;59.20;;;;;;4960270;28;20683;-63
2023/04/18 12:20:52;;;;;;;0.10;0.10;;;14.70;59.00;;;;;;4958138;28;20693;-62
2023/04/18 12:23:30;;;;;;;0.00;0.00;;;14.90;59.10;;;;;;4961040;28;20036;-63
2023/04/18 12:26:00;;;;;;;0.03;0.03;;;15.00;59.60;;;;;;4956680;28;20066;-63
2023/04/18 12:28:26;;;;;;;0.00;0.00;;;15.00;58.80;;;;;;4960007;28;20051;-63
2023/04/18 12:30:51;;;;;;;0.85;0.55;;;15.10;58.40;;;;;;4960028;28;20530;-63
2023/04/18 12:33:18;;;;;;;0.00;0.00;;;15.20;59.20;;;;;;4960929;28;20042;-63
2023/04/18 12:35:44;;;;;;;0.00;0.00;;;15.20;57.80;;;;;;4962146;28;20046;-63
2023/04/18 12:38:10;;;;;;;0.00;0.00;;;15.20;59.30;;;;;;4959514;28;20054;-63
2023/04/18 12:40:37;;;;;;;0.10;0.10;;;15.30;59.20;;;;;;4958320;28;20035;-62
2023/04/18 12:43:03;;;;;;;0.00;0.00;;;15.40;59.20;;;;;;4961049;28;20042;-62
2023/04/18 12:45:29;;;;;;;0.00;0.00;;;15.40;57.30;;;;;;4961222;28;20130;-63
2023/04/18 12:47:54;;;;;;;0.05;0.05;;;15.30;55.50;;;;;;4960633;28;20528;-63
2023/04/18 12:50:23;;;;;;;1.45;0.73;;;15.10;56.90;;;;;;4956037;28;20046;-62